Terminal Aerodrome Forecast
Issued by NWS

Home | Current Version | Previous Version | Text Only | Print | Product List | Glossary On
Versions: 1 2 3 4 5 6 7 8 9 10 11 12 13 14 15
000
FTUS43 KIND 130500
TAFBMG
TAF
KBMG 130522Z 1306/1406 21006KT P6SM SCT020 BKN150
     FM131100 22007KT P6SM VCTS BKN050CB
     FM131500 22007KT P6SM BKN050
     FM131900 27010KT P6SM VCTS BKN020CB
     FM140100 VRB02KT P6SM SCT020
      AMD LTD TO CLD VIS AND WIND TIL 131300=

USA.gov is the U.S. government's official web portal to all federal, state and local government web resources and services.